createdAt,value
2023-03-12T00:02:00.041Z,10.80
2023-03-12T00:04:27.225Z,10.58
2023-03-12T00:06:53.858Z,10.80
2023-03-12T00:09:20.449Z,10.93
2023-03-12T00:11:46.944Z,11.09
2023-03-12T00:14:13.498Z,11.17
2023-03-12T00:16:40.247Z,11.24
2023-03-12T00:19:06.767Z,11.29
2023-03-12T00:21:33.380Z,11.40
2023-03-12T00:23:59.862Z,11.41
2023-03-12T00:26:26.370Z,11.42
2023-03-12T00:28:52.862Z,11.23
2023-03-12T00:31:25.641Z,11.15
2023-03-12T00:33:52.280Z,11.28
2023-03-12T00:36:21.645Z,11.14
2023-03-12T00:38:48.169Z,11.29
2023-03-12T00:41:14.620Z,11.05
2023-03-12T00:43:41.106Z,11.19
2023-03-12T00:46:07.598Z,11.08
2023-03-12T00:48:34.132Z,11.04
2023-03-12T00:51:00.619Z,10.97
2023-03-12T00:53:27.118Z,11.08
2023-03-12T00:55:53.604Z,11.03
2023-03-12T00:58:20.073Z,11.13
2023-03-12T01:00:46.613Z,11.17
2023-03-12T01:03:13.731Z,11.22
2023-03-12T01:05:40.302Z,11.24
2023-03-12T01:08:08.930Z,11.26
2023-03-12T01:10:36.893Z,11.24
2023-03-12T01:13:03.443Z,11.22
2023-03-12T01:15:30.062Z,11.25
2023-03-12T01:17:56.560Z,11.26
2023-03-12T01:20:23.338Z,11.27
2023-03-12T01:22:50.743Z,11.28
2023-03-12T01:25:17.412Z,11.25
2023-03-12T01:27:44.055Z,11.00
2023-03-12T01:30:11.394Z,10.52
2023-03-12T01:32:38.282Z,10.48
2023-03-12T01:35:05.515Z,10.44
2023-03-12T01:37:32.937Z,10.63
2023-03-12T01:39:59.573Z,10.50
2023-03-12T01:42:26.118Z,10.77
2023-03-12T01:44:57.274Z,10.47
2023-03-12T01:47:24.505Z,10.68
2023-03-12T01:49:54.191Z,10.86
2023-03-12T01:52:25.303Z,11.04
2023-03-12T01:54:59.729Z,11.23
2023-03-12T01:57:36.568Z,11.35
2023-03-12T02:00:13.175Z,11.45
2023-03-12T02:02:43.459Z,11.53
2023-03-12T02:05:34.740Z,11.57
2023-03-12T02:08:01.395Z,11.63
2023-03-12T02:10:27.895Z,11.67
2023-03-12T02:12:54.537Z,11.58
2023-03-12T02:15:21.458Z,11.63
2023-03-12T02:17:47.937Z,11.63
2023-03-12T02:20:25.244Z,11.65
2023-03-12T02:23:04.841Z,11.64
2023-03-12T02:25:46.132Z,11.70
2023-03-12T02:28:16.889Z,11.68
2023-03-12T02:30:48.374Z,11.73
2023-03-12T02:33:15.917Z,11.42
2023-03-12T02:35:43.079Z,11.35
2023-03-12T02:38:45.024Z,11.24
2023-03-12T02:41:22.583Z,11.36
2023-03-12T02:44:10.961Z,11.40
2023-03-12T02:46:43.500Z,11.44
2023-03-12T02:49:11.738Z,11.39
2023-03-12T02:51:38.852Z,11.23
2023-03-12T02:54:05.519Z,11.25
2023-03-12T02:56:32.075Z,11.28
2023-03-12T02:58:59.094Z,11.39
2023-03-12T03:01:25.837Z,11.43
2023-03-12T03:03:52.425Z,11.43
2023-03-12T03:06:18.960Z,11.37
2023-03-12T03:08:45.618Z,11.44
2023-03-12T03:11:12.880Z,11.50
2023-03-12T03:13:39.365Z,11.44
2023-03-12T03:16:06.257Z,11.49
2023-03-12T03:18:33.005Z,11.47
2023-03-12T03:21:05.802Z,11.52
2023-03-12T03:23:33.495Z,11.55
2023-03-12T03:26:00.181Z,11.50
2023-03-12T03:28:29.134Z,11.50
2023-03-12T03:30:58.246Z,11.58
2023-03-12T03:33:24.827Z,11.65
2023-03-12T03:35:51.367Z,11.68
2023-03-12T03:38:18.945Z,11.74
2023-03-12T03:40:45.594Z,11.62
2023-03-12T03:43:12.200Z,11.71
2023-03-12T03:45:38.793Z,11.80
2023-03-12T03:48:05.622Z,11.83
2023-03-12T03:50:32.130Z,11.87
2023-03-12T03:52:58.613Z,11.93
2023-03-12T03:55:25.110Z,11.92
2023-03-12T03:57:51.754Z,11.71
2023-03-12T04:00:18.502Z,11.62
2023-03-12T04:02:45.013Z,11.49
2023-03-12T04:05:11.802Z,11.49
2023-03-12T04:07:38.639Z,11.44
2023-03-12T04:10:05.754Z,10.91
2023-03-12T04:12:32.271Z,10.79
2023-03-12T04:14:58.761Z,10.77
2023-03-12T04:17:25.264Z,10.60
2023-03-12T04:19:51.761Z,10.62
2023-03-12T04:22:18.297Z,10.02
2023-03-12T04:24:44.851Z,10.51
2023-03-12T04:27:11.403Z,10.75
2023-03-12T04:29:37.917Z,11.04
2023-03-12T04:32:05.348Z,11.07
2023-03-12T04:34:31.824Z,11.25
2023-03-12T04:37:01.350Z,11.03
2023-03-12T04:39:27.941Z,10.99
2023-03-12T04:41:54.473Z,11.00
2023-03-12T04:44:21.012Z,10.79
2023-03-12T04:46:47.562Z,10.80
2023-03-12T04:49:14.089Z,11.05
2023-03-12T04:51:40.656Z,11.29
2023-03-12T04:54:07.195Z,11.40
2023-03-12T04:56:33.689Z,11.50
2023-03-12T04:59:00.226Z,10.53
2023-03-12T05:01:35.374Z,10.84
2023-03-12T05:04:03.007Z,11.07
2023-03-12T05:06:29.843Z,11.26
2023-03-12T05:08:56.434Z,11.24
2023-03-12T05:11:24.061Z,11.36
2023-03-12T05:13:50.733Z,11.39
2023-03-12T05:16:18.373Z,11.48
2023-03-12T05:18:45.663Z,11.59
2023-03-12T05:21:14.980Z,11.30
2023-03-12T05:23:41.919Z,11.55
2023-03-12T05:26:24.673Z,11.48
2023-03-12T05:28:52.365Z,11.56
2023-03-12T05:31:20.766Z,11.44
2023-03-12T05:33:48.625Z,11.58
2023-03-12T05:36:17.253Z,11.61
2023-03-12T05:38:43.804Z,11.19
2023-03-12T05:41:19.453Z,11.18
2023-03-12T05:43:45.924Z,11.32
2023-03-12T05:46:12.611Z,11.22
2023-03-12T05:48:39.182Z,11.12
2023-03-12T05:51:06.095Z,11.21
2023-03-12T05:53:32.764Z,10.83
2023-03-12T05:56:04.682Z,10.67
2023-03-12T05:58:32.141Z,10.92
2023-03-12T06:00:59.047Z,10.66
2023-03-12T06:03:25.656Z,10.78
2023-03-12T06:05:52.297Z,10.86
2023-03-12T06:08:18.789Z,11.16
2023-03-12T06:10:45.247Z,11.21
2023-03-12T06:13:11.763Z,11.29
2023-03-12T06:15:38.319Z,10.97
2023-03-12T06:18:05.058Z,11.02
2023-03-12T06:20:31.533Z,11.04
2023-03-12T06:22:58.008Z,11.00
2023-03-12T06:25:24.532Z,11.28
2023-03-12T06:27:51.142Z,11.21
2023-03-12T06:30:17.941Z,11.28
2023-03-12T06:32:44.417Z,11.43
2023-03-12T06:35:10.935Z,10.95
2023-03-12T06:37:37.434Z,10.73
2023-03-12T06:40:04.297Z,10.81
2023-03-12T06:42:30.785Z,11.03
2023-03-12T06:44:57.253Z,10.95
2023-03-12T06:47:23.728Z,10.94
2023-03-12T06:49:50.203Z,11.18
2023-03-12T06:52:16.689Z,11.17
2023-03-12T06:54:43.309Z,11.32
2023-03-12T06:57:09.819Z,11.32
2023-03-12T06:59:36.362Z,11.26
2023-03-12T07:02:02.957Z,11.55
2023-03-12T07:04:29.555Z,11.65
2023-03-12T07:06:56.051Z,11.74
2023-03-12T07:09:22.795Z,11.82
2023-03-12T07:11:49.319Z,11.81
2023-03-12T07:14:15.807Z,11.86
2023-03-12T07:16:45.175Z,11.97
2023-03-12T07:19:11.703Z,11.86
2023-03-12T07:21:38.189Z,11.93
2023-03-12T07:24:04.985Z,11.57
2023-03-12T07:26:31.575Z,11.62
2023-03-12T07:28:58.074Z,11.79
2023-03-12T07:31:24.571Z,11.62
2023-03-12T07:33:51.143Z,11.40
2023-03-12T07:36:17.820Z,11.65
2023-03-12T07:38:44.408Z,11.87
2023-03-12T07:41:10.964Z,11.67
2023-03-12T07:43:37.626Z,11.89
2023-03-12T07:46:04.240Z,12.02
2023-03-12T07:48:30.782Z,12.17
2023-03-12T07:50:57.283Z,12.17
2023-03-12T07:53:23.781Z,12.26
2023-03-12T07:55:50.456Z,12.26
2023-03-12T07:58:17.394Z,12.29
2023-03-12T08:00:44.400Z,12.39
2023-03-12T08:03:11.806Z,12.36
2023-03-12T08:05:39.107Z,12.47
2023-03-12T08:08:06.259Z,12.55
2023-03-12T08:10:32.849Z,12.50
2023-03-12T08:12:59.409Z,12.56
2023-03-12T08:15:25.918Z,12.52
2023-03-12T08:17:52.451Z,12.46
2023-03-12T08:20:18.943Z,12.59
2023-03-12T08:22:45.389Z,12.47
2023-03-12T08:25:11.938Z,12.60
2023-03-12T08:27:38.394Z,12.52
2023-03-12T08:30:06.789Z,12.44
2023-03-12T08:32:33.567Z,12.27
2023-03-12T08:35:00.283Z,12.43
2023-03-12T08:37:26.771Z,12.51
2023-03-12T08:39:53.392Z,12.51
2023-03-12T08:42:23.004Z,12.66
2023-03-12T08:44:49.473Z,12.73
2023-03-12T08:47:15.983Z,12.84
2023-03-12T08:49:42.477Z,13.01
2023-03-12T08:52:08.940Z,13.02
2023-03-12T08:54:35.458Z,13.01
2023-03-12T08:57:01.937Z,13.16
2023-03-12T08:59:28.448Z,13.29
2023-03-12T09:01:54.917Z,13.44
2023-03-12T09:04:21.472Z,13.22
2023-03-12T09:06:47.977Z,13.09
2023-03-12T09:09:14.641Z,13.11
2023-03-12T09:11:41.331Z,13.31
2023-03-12T09:14:57.615Z,13.13
2023-03-12T09:16:54.834Z,13.46
2023-03-12T09:19:21.402Z,13.35
2023-03-12T09:21:47.984Z,13.05
2023-03-12T09:24:14.502Z,13.25
2023-03-12T09:26:41.142Z,13.56
2023-03-12T09:29:07.604Z,13.52
2023-03-12T09:31:34.676Z,13.44
2023-03-12T09:34:01.147Z,12.94
2023-03-12T09:36:28.210Z,13.17
2023-03-12T09:38:55.180Z,13.19
2023-03-12T09:41:28.679Z,13.20
2023-03-12T09:44:21.180Z,13.47
2023-03-12T09:46:56.515Z,13.51
2023-03-12T09:49:35.117Z,13.15
2023-03-12T09:52:13.000Z,13.36
2023-03-12T09:54:54.692Z,13.09
2023-03-12T09:57:25.673Z,13.37
2023-03-12T09:59:53.309Z,13.14
2023-03-12T10:02:25.539Z,12.91
2023-03-12T10:05:11.579Z,13.34
2023-03-12T10:07:50.411Z,13.67
2023-03-12T10:10:25.045Z,13.92
2023-03-12T10:13:16.838Z,13.97
2023-03-12T10:16:04.917Z,13.63
2023-03-12T10:18:42.537Z,13.38
2023-03-12T10:21:49.764Z,13.20
2023-03-12T10:24:25.558Z,13.32
2023-03-12T10:26:57.114Z,13.68
2023-03-12T10:29:30.803Z,13.61
2023-03-12T10:32:26.287Z,13.56
2023-03-12T10:34:58.629Z,13.86
2023-03-12T10:37:31.316Z,13.71
2023-03-12T10:39:57.842Z,13.50
2023-03-12T10:42:27.530Z,13.47
2023-03-12T10:45:09.340Z,13.38
2023-03-12T10:47:41.222Z,13.30
2023-03-12T10:50:23.756Z,13.05
2023-03-12T10:52:54.078Z,13.11
2023-03-12T10:55:29.716Z,13.18
2023-03-12T10:57:57.337Z,13.01
2023-03-12T11:00:27.368Z,13.31
2023-03-12T11:02:59.229Z,13.21
2023-03-12T11:05:33.179Z,13.01
2023-03-12T11:08:01.879Z,12.91
2023-03-12T11:10:43.669Z,12.87
2023-03-12T11:13:31.368Z,12.77
2023-03-12T11:16:10.121Z,12.57
2023-03-12T11:18:37.642Z,12.82
2023-03-12T11:21:09.810Z,12.70
2023-03-12T11:23:40.380Z,13.10
2023-03-12T11:26:17.139Z,13.06
2023-03-12T11:28:48.897Z,13.39
2023-03-12T11:31:41.290Z,13.26
2023-03-12T11:34:20.575Z,13.26
2023-03-12T11:37:15.144Z,13.37
2023-03-12T11:39:51.609Z,13.45
2023-03-12T11:42:31.831Z,13.23
2023-03-12T11:45:06.212Z,13.11
2023-03-12T11:48:03.499Z,13.33
2023-03-12T11:50:48.653Z,13.32
2023-03-12T11:53:23.967Z,13.26
2023-03-12T11:55:53.438Z,13.05
2023-03-12T11:58:44.839Z,13.21
2023-03-12T12:01:35.917Z,13.21
2023-03-12T12:04:45.248Z,13.22
2023-03-12T12:07:45.132Z,13.27
2023-03-12T12:10:35.665Z,13.09
2023-03-12T12:13:32.948Z,13.00
2023-03-12T12:16:40.180Z,13.08
2023-03-12T12:19:31.525Z,13.26
2023-03-12T12:22:06.612Z,13.19
2023-03-12T12:24:51.980Z,13.06
2023-03-12T12:27:26.427Z,13.28
2023-03-12T12:30:11.297Z,13.46
2023-03-12T12:33:19.004Z,13.51
2023-03-12T12:35:46.160Z,13.30
2023-03-12T12:38:40.595Z,13.46
2023-03-12T12:41:17.559Z,13.49
2023-03-12T12:43:49.147Z,13.47
2023-03-12T12:46:43.854Z,13.71
2023-03-12T12:49:19.549Z,13.68
2023-03-12T12:51:56.926Z,13.69
2023-03-12T12:54:44.842Z,13.64
2023-03-12T12:57:14.139Z,14.01
2023-03-12T13:00:08.511Z,14.23
2023-03-12T13:02:42.946Z,14.37
2023-03-12T13:05:20.282Z,14.41
2023-03-12T13:07:46.892Z,14.50
2023-03-12T13:10:35.085Z,14.68
2023-03-12T13:13:11.912Z,14.95
2023-03-12T13:15:41.722Z,14.94
2023-03-12T13:18:22.408Z,15.09
2023-03-12T13:20:51.842Z,15.21
2023-03-12T13:23:42.751Z,15.44
2023-03-12T13:26:26.537Z,15.44
2023-03-12T13:28:56.752Z,15.55
2023-03-12T13:31:29.247Z,15.38
2023-03-12T13:34:19.514Z,15.46
2023-03-12T13:36:51.791Z,15.67
2023-03-12T13:39:30.387Z,15.63
2023-03-12T13:41:58.873Z,15.85
2023-03-12T13:44:28.061Z,15.83
2023-03-12T13:47:05.479Z,15.96
2023-03-12T13:49:53.581Z,16.05
2023-03-12T13:52:29.877Z,16.26
2023-03-12T13:55:01.780Z,16.08
2023-03-12T13:57:51.179Z,16.09
2023-03-12T14:00:31.406Z,16.19
2023-03-12T14:03:03.556Z,16.43
2023-03-12T14:05:46.331Z,16.55
2023-03-12T14:09:00.127Z,16.68
2023-03-12T14:11:54.583Z,17.16
2023-03-12T14:14:43.020Z,17.33
2023-03-12T14:17:21.242Z,17.62
2023-03-12T14:19:57.201Z,17.35
2023-03-12T14:22:28.365Z,17.44
2023-03-12T14:24:59.328Z,17.45
2023-03-12T14:27:30.488Z,17.41
2023-03-12T14:30:10.154Z,17.53
2023-03-12T14:32:38.557Z,17.84
2023-03-12T14:35:22.812Z,17.90
2023-03-12T14:38:12.126Z,18.03
2023-03-12T14:40:46.655Z,18.12
2023-03-12T14:43:23.265Z,18.46
2023-03-12T14:45:51.870Z,18.42
2023-03-12T14:48:23.737Z,18.43
2023-03-12T14:50:50.738Z,18.94
2023-03-12T14:53:30.360Z,19.11
2023-03-12T14:56:12.988Z,19.37
2023-03-12T14:58:48.411Z,19.40
2023-03-12T15:01:20.528Z,19.49
2023-03-12T15:03:52.425Z,19.30
2023-03-12T15:06:28.939Z,19.48
2023-03-12T15:08:56.589Z,19.92
2023-03-12T15:11:27.487Z,19.96
2023-03-12T15:14:01.503Z,20.11
2023-03-12T15:16:28.414Z,20.12
2023-03-12T15:18:56.819Z,20.16
2023-03-12T15:21:24.492Z,20.38
2023-03-12T15:23:51.211Z,20.13
2023-03-12T15:26:20.711Z,20.43
2023-03-12T15:28:58.365Z,20.26
2023-03-12T15:31:25.263Z,20.76
2023-03-12T15:34:04.685Z,20.76
2023-03-12T15:36:33.879Z,20.81
2023-03-12T15:39:20.061Z,21.08
2023-03-12T15:41:48.945Z,21.11
2023-03-12T15:44:28.207Z,21.16
2023-03-12T15:47:05.723Z,21.16
2023-03-12T15:49:36.826Z,20.93
2023-03-12T15:52:18.622Z,21.56
2023-03-12T15:55:03.957Z,21.31
2023-03-12T15:57:32.306Z,21.24
2023-03-12T16:00:10.975Z,20.96
2023-03-12T16:02:46.026Z,20.51
2023-03-12T16:05:12.970Z,20.53
2023-03-12T16:07:39.527Z,20.02
2023-03-12T16:10:11.032Z,19.75
2023-03-12T16:12:37.931Z,19.17
2023-03-12T16:15:04.874Z,18.86
2023-03-12T16:17:31.572Z,18.22
2023-03-12T16:19:58.042Z,18.30
2023-03-12T16:22:24.500Z,17.79
2023-03-12T16:24:51.102Z,17.68
2023-03-12T16:27:23.739Z,17.38
2023-03-12T16:29:58.398Z,17.06
2023-03-12T16:32:24.928Z,17.17
2023-03-12T16:34:51.432Z,17.03
2023-03-12T16:37:17.909Z,17.21
2023-03-12T16:39:44.404Z,17.21
2023-03-12T16:42:24.944Z,16.93
2023-03-12T16:44:51.557Z,17.13
2023-03-12T16:47:18.128Z,17.16
2023-03-12T16:49:44.748Z,17.12
2023-03-12T16:52:23.090Z,17.14
2023-03-12T16:54:50.932Z,17.04
2023-03-12T16:57:36.639Z,17.21
2023-03-12T17:00:07.540Z,16.74
2023-03-12T17:02:35.374Z,16.62
2023-03-12T17:05:01.859Z,16.82
2023-03-12T17:07:28.455Z,16.45
2023-03-12T17:09:55.325Z,16.32
2023-03-12T17:12:33.307Z,16.29
2023-03-12T17:15:03.061Z,16.22
2023-03-12T17:17:29.613Z,16.10
2023-03-12T17:19:56.133Z,15.98
2023-03-12T17:22:22.589Z,16.06
2023-03-12T17:24:49.035Z,15.65
2023-03-12T17:27:15.628Z,15.97
2023-03-12T17:29:42.305Z,16.15
2023-03-12T17:32:08.824Z,16.30
2023-03-12T17:34:36.832Z,16.41
2023-03-12T17:37:03.408Z,16.56
2023-03-12T17:39:30.237Z,16.42
2023-03-12T17:41:56.737Z,16.25
2023-03-12T17:44:23.991Z,16.45
2023-03-12T17:46:59.042Z,16.25
2023-03-12T17:49:26.696Z,16.38
2023-03-12T17:51:53.376Z,16.24
2023-03-12T17:54:19.876Z,16.16
2023-03-12T17:56:46.404Z,16.20
2023-03-12T17:59:12.892Z,16.25
2023-03-12T18:01:39.406Z,16.12
2023-03-12T18:04:05.990Z,16.13
2023-03-12T18:06:32.440Z,16.14
2023-03-12T18:08:58.913Z,16.19
2023-03-12T18:11:25.506Z,16.15
2023-03-12T18:13:51.998Z,16.21
2023-03-12T18:16:18.581Z,16.21
2023-03-12T18:18:45.111Z,16.16
2023-03-12T18:21:11.596Z,16.13
2023-03-12T18:23:38.082Z,16.11
2023-03-12T18:26:04.728Z,16.09
2023-03-12T18:28:31.228Z,16.01
2023-03-12T18:30:57.762Z,15.90
2023-03-12T18:33:24.286Z,15.94
2023-03-12T18:35:52.534Z,15.90
2023-03-12T18:38:20.745Z,15.79
2023-03-12T18:40:47.234Z,15.77
2023-03-12T18:43:13.729Z,15.71
2023-03-12T18:45:43.583Z,15.64
2023-03-12T18:48:10.595Z,15.58
2023-03-12T18:50:37.074Z,15.53
2023-03-12T18:53:03.523Z,15.46
2023-03-12T18:55:30.011Z,15.32
2023-03-12T18:57:56.508Z,15.29
2023-03-12T19:00:23.095Z,15.30
2023-03-12T19:02:49.602Z,15.28
2023-03-12T19:05:16.430Z,15.26
2023-03-12T19:07:43.879Z,15.29
2023-03-12T19:10:11.887Z,15.16
2023-03-12T19:12:50.772Z,15.17
2023-03-12T19:15:19.102Z,15.14
2023-03-12T19:17:45.571Z,15.13
2023-03-12T19:20:12.494Z,15.12
2023-03-12T19:22:38.996Z,15.09
2023-03-12T19:25:06.113Z,15.05
2023-03-12T19:27:32.594Z,15.07
2023-03-12T19:29:59.143Z,15.02
2023-03-12T19:32:33.092Z,14.90
2023-03-12T19:35:09.119Z,14.65
2023-03-12T19:37:35.651Z,14.83
2023-03-12T19:40:02.158Z,14.83
2023-03-12T19:42:28.664Z,14.88
2023-03-12T19:44:55.122Z,14.73
2023-03-12T19:47:21.677Z,14.69
2023-03-12T19:49:48.136Z,14.70
2023-03-12T19:52:14.664Z,14.46
2023-03-12T19:54:41.187Z,14.45
2023-03-12T19:57:07.656Z,14.33
2023-03-12T19:59:34.152Z,14.36
2023-03-12T20:02:00.634Z,14.39
2023-03-12T20:04:27.769Z,14.42
2023-03-12T20:06:54.300Z,14.46
2023-03-12T20:09:20.838Z,14.43
2023-03-12T20:11:47.364Z,14.34
2023-03-12T20:14:13.853Z,14.35
2023-03-12T20:16:40.334Z,14.43
2023-03-12T20:19:06.820Z,14.40
2023-03-12T20:21:33.325Z,14.43
2023-03-12T20:24:00.083Z,14.47
2023-03-12T20:26:26.559Z,14.56
2023-03-12T20:28:53.017Z,14.54
2023-03-12T20:31:19.812Z,14.52
2023-03-12T20:33:46.332Z,14.06
2023-03-12T20:36:14.055Z,14.14
2023-03-12T20:38:41.030Z,14.15
2023-03-12T20:41:14.392Z,14.24
2023-03-12T20:43:42.347Z,14.29
2023-03-12T20:46:09.977Z,14.34
2023-03-12T20:48:36.461Z,14.27
2023-03-12T20:51:03.017Z,14.39
2023-03-12T20:53:29.862Z,14.34
2023-03-12T20:55:57.362Z,14.14
2023-03-12T20:58:24.046Z,14.28
2023-03-12T21:00:50.905Z,14.21
2023-03-12T21:03:18.168Z,14.21
2023-03-12T21:05:55.144Z,14.31
2023-03-12T21:08:22.824Z,14.44
2023-03-12T21:10:49.348Z,14.33
2023-03-12T21:13:17.363Z,14.40
2023-03-12T21:15:44.273Z,14.44
2023-03-12T21:18:10.966Z,14.50
2023-03-12T21:20:39.549Z,14.55
2023-03-12T21:23:07.199Z,14.55
2023-03-12T21:25:37.097Z,14.54
2023-03-12T21:28:07.376Z,14.56
2023-03-12T21:30:34.463Z,14.57
2023-03-12T21:33:02.567Z,14.53
2023-03-12T21:35:29.396Z,14.52
2023-03-12T21:37:55.973Z,14.50
2023-03-12T21:40:23.740Z,14.49
2023-03-12T21:42:50.323Z,14.35
2023-03-12T21:45:18.995Z,14.34
2023-03-12T21:47:45.479Z,14.40
2023-03-12T21:50:11.960Z,14.37
2023-03-12T21:52:40.013Z,14.30
2023-03-12T21:55:08.740Z,14.31
2023-03-12T21:57:35.514Z,14.25
2023-03-12T22:00:02.138Z,14.21
2023-03-12T22:02:28.597Z,14.09
2023-03-12T22:04:55.103Z,14.11
2023-03-12T22:07:21.641Z,14.04
2023-03-12T22:09:48.121Z,13.81
2023-03-12T22:12:14.646Z,13.80
2023-03-12T22:14:41.146Z,13.71
2023-03-12T22:17:07.630Z,13.72
2023-03-12T22:19:34.105Z,13.68
2023-03-12T22:22:00.549Z,13.69
2023-03-12T22:24:27.049Z,13.64
2023-03-12T22:26:53.485Z,13.53
2023-03-12T22:29:19.981Z,13.56
2023-03-12T22:31:46.461Z,13.58
2023-03-12T22:34:17.215Z,13.62
2023-03-12T22:36:43.778Z,13.64
2023-03-12T22:39:10.251Z,13.66
2023-03-12T22:41:36.736Z,13.66
2023-03-12T22:44:07.930Z,13.55
2023-03-12T22:46:35.114Z,13.56
2023-03-12T22:49:03.887Z,13.41
2023-03-12T22:51:32.331Z,13.47
2023-03-12T22:53:58.957Z,13.34
2023-03-12T22:56:25.894Z,13.05
2023-03-12T22:58:52.377Z,13.05
2023-03-12T23:01:21.480Z,13.32
2023-03-12T23:03:48.475Z,13.08
2023-03-12T23:06:21.133Z,13.00
2023-03-12T23:08:48.167Z,12.49
2023-03-12T23:11:16.300Z,12.55
2023-03-12T23:13:45.518Z,12.92
2023-03-12T23:16:16.700Z,13.10
2023-03-12T23:18:43.505Z,13.21
2023-03-12T23:21:19.263Z,13.10
2023-03-12T23:23:47.066Z,12.79
2023-03-12T23:26:22.242Z,12.69
2023-03-12T23:28:49.216Z,12.96
2023-03-12T23:31:16.357Z,13.09
2023-03-12T23:33:43.462Z,13.27
2023-03-12T23:36:16.306Z,13.32
2023-03-12T23:38:43.472Z,13.43
2023-03-12T23:41:15.917Z,13.52
2023-03-12T23:43:43.420Z,13.46
2023-03-12T23:46:13.733Z,13.34
2023-03-12T23:48:41.214Z,13.40
2023-03-12T23:51:20.012Z,13.40
2023-03-12T23:53:50.085Z,13.50
2023-03-12T23:56:19.674Z,13.53
2023-03-12T23:58:47.141Z,13.66
